sensor_id;sensor_type;location;lat;lon;timestamp;pressure;altitude;pressure_sealevel;temperature;humidity
41513;BME280;27244;59.940;30.280;2022-09-09T00:02:15;102661.22;;;21.79;44.90
41513;BME280;27244;59.940;30.280;2022-09-09T00:04:49;102656.38;;;21.76;45.02
41513;BME280;27244;59.940;30.280;2022-09-09T00:07:23;102639.31;;;21.58;44.46
41513;BME280;27244;59.940;30.280;2022-09-09T00:09:58;102657.94;;;21.74;44.58
41513;BME280;27244;59.940;30.280;2022-09-09T00:12:34;102658.00;;;21.77;44.25
41513;BME280;27244;59.940;30.280;2022-09-09T00:15:10;102661.16;;;21.76;44.35
41513;BME280;27244;59.940;30.280;2022-09-09T00:17:43;102662.34;;;21.75;44.07
41513;BME280;27244;59.940;30.280;2022-09-09T00:20:13;102661.09;;;21.69;43.85
41513;BME280;27244;59.940;30.280;2022-09-09T00:22:45;102664.72;;;21.69;44.16
41513;BME280;27244;59.940;30.280;2022-09-09T00:25:19;102675.19;;;21.72;43.91
41513;BME280;27244;59.940;30.280;2022-09-09T00:27:51;102668.31;;;21.66;43.72
41513;BME280;27244;59.940;30.280;2022-09-09T00:30:19;102671.53;;;21.68;43.44
41513;BME280;27244;59.940;30.280;2022-09-09T00:32:49;102674.72;;;21.67;43.72
41513;BME280;27244;59.940;30.280;2022-09-09T00:35:22;102680.38;;;21.70;43.77
41513;BME280;27244;59.940;30.280;2022-09-09T00:37:53;102673.09;;;21.66;43.82
41513;BME280;27244;59.940;30.280;2022-09-09T00:40:27;102674.78;;;21.70;43.89
41513;BME280;27244;59.940;30.280;2022-09-09T00:43:12;102680.44;;;21.74;43.68
41513;BME280;27244;59.940;30.280;2022-09-09T00:46:00;102682.41;;;21.73;43.94
41513;BME280;27244;59.940;30.280;2022-09-09T00:48:39;102676.31;;;21.68;43.63
41513;BME280;27244;59.940;30.280;2022-09-09T00:51:15;102680.75;;;21.69;43.23
41513;BME280;27244;59.940;30.280;2022-09-09T00:54:03;102679.63;;;21.73;43.14
41513;BME280;27244;59.940;30.280;2022-09-09T00:56:37;102683.47;;;21.62;43.09
41513;BME280;27244;59.940;30.280;2022-09-09T00:59:22;102676.28;;;21.64;43.12
41513;BME280;27244;59.940;30.280;2022-09-09T01:01:53;102685.06;;;21.59;43.17
41513;BME280;27244;59.940;30.280;2022-09-09T01:04:27;102681.84;;;21.60;43.02
41513;BME280;27244;59.940;30.280;2022-09-09T01:07:03;102684.72;;;21.64;42.80
41513;BME280;27244;59.940;30.280;2022-09-09T01:09:39;102669.06;;;21.63;42.94
41513;BME280;27244;59.940;30.280;2022-09-09T01:12:15;102666.63;;;21.62;42.29
41513;BME280;27244;59.940;30.280;2022-09-09T01:14:48;102673.44;;;21.60;42.94
41513;BME280;27244;59.940;30.280;2022-09-09T01:17:21;102673.41;;;21.57;42.42
41513;BME280;27244;59.940;30.280;2022-09-09T01:20:07;102673.84;;;21.59;42.56
41513;BME280;27244;59.940;30.280;2022-09-09T01:22:52;102673.06;;;21.62;42.42
41513;BME280;27244;59.940;30.280;2022-09-09T01:25:28;102675.44;;;21.60;42.83
41513;BME280;27244;59.940;30.280;2022-09-09T01:28:09;102679.00;;;21.57;42.39
41513;BME280;27244;59.940;30.280;2022-09-09T01:30:39;102678.97;;;21.53;42.56
41513;BME280;27244;59.940;30.280;2022-09-09T01:33:13;102673.78;;;21.55;42.66
41513;BME280;27244;59.940;30.280;2022-09-09T01:35:42;102679.69;;;21.80;42.60
41513;BME280;27244;59.940;30.280;2022-09-09T01:38:13;102675.38;;;21.56;42.17
41513;BME280;27244;59.940;30.280;2022-09-09T01:40:41;102678.59;;;21.55;42.37
41513;BME280;27244;59.940;30.280;2022-09-09T01:43:10;102668.56;;;21.54;42.60
41513;BME280;27244;59.940;30.280;2022-09-09T01:45:39;102670.13;;;21.51;42.30
41513;BME280;27244;59.940;30.280;2022-09-09T01:48:07;102672.94;;;21.51;42.31
41513;BME280;27244;59.940;30.280;2022-09-09T01:50:43;102668.50;;;21.50;42.26
41513;BME280;27244;59.940;30.280;2022-09-09T01:53:11;102672.50;;;21.49;42.14
41513;BME280;27244;59.940;30.280;2022-09-09T01:55:41;102672.09;;;21.47;41.89
41513;BME280;27244;59.940;30.280;2022-09-09T01:58:28;102679.81;;;21.57;41.93
41513;BME280;27244;59.940;30.280;2022-09-09T02:01:04;102674.13;;;21.50;42.40
41513;BME280;27244;59.940;30.280;2022-09-09T02:03:35;102679.75;;;21.50;42.14
41513;BME280;27244;59.940;30.280;2022-09-09T02:06:25;102674.13;;;21.50;42.04
41513;BME280;27244;59.940;30.280;2022-09-09T02:09:01;102677.69;;;21.47;42.03
41513;BME280;27244;59.940;30.280;2022-09-09T02:11:30;102676.03;;;21.43;41.77
41513;BME280;27244;59.940;30.280;2022-09-09T02:14:08;102680.09;;;21.49;42.02
41513;BME280;27244;59.940;30.280;2022-09-09T02:16:42;102679.31;;;21.48;41.89
41513;BME280;27244;59.940;30.280;2022-09-09T02:19:15;102687.34;;;21.50;42.18
41513;BME280;27244;59.940;30.280;2022-09-09T02:22:05;102675.25;;;21.46;41.93
41513;BME280;27244;59.940;30.280;2022-09-09T02:24:36;102674.09;;;21.47;41.93
41513;BME280;27244;59.940;30.280;2022-09-09T02:27:30;102676.88;;;21.47;41.84
41513;BME280;27244;59.940;30.280;2022-09-09T02:29:59;102673.72;;;21.48;41.80
41513;BME280;27244;59.940;30.280;2022-09-09T02:32:36;102678.06;;;21.46;42.02
41513;BME280;27244;59.940;30.280;2022-09-09T02:35:07;102676.38;;;21.71;41.89
41513;BME280;27244;59.940;30.280;2022-09-09T02:37:39;102682.53;;;21.50;41.89
41513;BME280;27244;59.940;30.280;2022-09-09T02:40:09;102680.06;;;21.45;41.98
41513;BME280;27244;59.940;30.280;2022-09-09T02:42:44;102672.84;;;21.44;41.89
41513;BME280;27244;59.940;30.280;2022-09-09T02:45:14;102671.28;;;21.47;41.67
41513;BME280;27244;59.940;30.280;2022-09-09T02:47:49;102671.28;;;21.47;41.77
41513;BME280;27244;59.940;30.280;2022-09-09T02:50:22;102673.66;;;21.45;41.98
41513;BME280;27244;59.940;30.280;2022-09-09T02:53:05;102672.16;;;21.54;41.65
41513;BME280;27244;59.940;30.280;2022-09-09T02:55:38;102664.84;;;21.46;42.07
41513;BME280;27244;59.940;30.280;2022-09-09T02:58:11;102674.03;;;21.43;42.00
41513;BME280;27244;59.940;30.280;2022-09-09T03:00:46;102665.63;;;21.43;41.64
41513;BME280;27244;59.940;30.280;2022-09-09T03:03:14;102666.38;;;21.40;41.79
41513;BME280;27244;59.940;30.280;2022-09-09T03:05:43;102667.19;;;21.41;41.94
41513;BME280;27244;59.940;30.280;2022-09-09T03:08:11;102667.19;;;21.41;41.59
41513;BME280;27244;59.940;30.280;2022-09-09T03:10:39;102667.56;;;21.39;41.61
41513;BME280;27244;59.940;30.280;2022-09-09T03:13:06;102668.38;;;21.40;41.65
41513;BME280;27244;59.940;30.280;2022-09-09T03:15:37;102657.88;;;21.67;41.67
41513;BME280;27244;59.940;30.280;2022-09-09T03:18:11;102658.38;;;21.42;41.36
41513;BME280;27244;59.940;30.280;2022-09-09T03:20:38;102657.16;;;21.40;41.56
41513;BME280;27244;59.940;30.280;2022-09-09T03:23:07;102663.53;;;21.37;40.61
41513;BME280;27244;59.940;30.280;2022-09-09T03:25:35;102663.91;;;21.35;41.67
41513;BME280;27244;59.940;30.280;2022-09-09T03:28:02;102660.69;;;21.33;40.90
41513;BME280;27244;59.940;30.280;2022-09-09T03:30:29;102663.91;;;21.35;41.53
41513;BME280;27244;59.940;30.280;2022-09-09T03:32:56;102663.09;;;21.35;41.45
41513;BME280;27244;59.940;30.280;2022-09-09T03:35:30;102661.53;;;21.37;41.81
41513;BME280;27244;59.940;30.280;2022-09-09T03:37:57;102656.28;;;21.36;41.63
41513;BME280;27244;59.940;30.280;2022-09-09T03:40:25;102656.66;;;21.34;41.50
41513;BME280;27244;59.940;30.280;2022-09-09T03:42:53;102672.28;;;21.32;41.54
41513;BME280;27244;59.940;30.280;2022-09-09T03:45:19;102676.31;;;21.34;41.80
41513;BME280;27244;59.940;30.280;2022-09-09T03:47:47;102672.72;;;21.34;41.75
41513;BME280;27244;59.940;30.280;2022-09-09T03:50:14;102668.66;;;21.31;41.75
41513;BME280;27244;59.940;30.280;2022-09-09T03:52:46;102671.50;;;21.35;41.48
41513;BME280;27244;59.940;30.280;2022-09-09T03:55:19;102672.28;;;21.32;41.59
41513;BME280;27244;59.940;30.280;2022-09-09T03:57:46;102680.34;;;21.33;41.31
41513;BME280;27244;59.940;30.280;2022-09-09T04:00:14;102681.16;;;21.34;41.61
41513;BME280;27244;59.940;30.280;2022-09-09T04:02:49;102669.88;;;21.30;41.63
41513;BME280;27244;59.940;30.280;2022-09-09T04:05:20;102675.53;;;21.34;41.43
41513;BME280;27244;59.940;30.280;2022-09-09T04:07:49;102672.72;;;21.34;41.49
41513;BME280;27244;59.940;30.280;2022-09-09T04:10:17;102669.09;;;21.33;41.17
41513;BME280;27244;59.940;30.280;2022-09-09T04:12:44;102672.28;;;21.32;40.97
41513;BME280;27244;59.940;30.280;2022-09-09T04:15:11;102669.88;;;21.30;41.23
41513;BME280;27244;59.940;30.280;2022-09-09T04:17:38;102673.47;;;21.31;41.30
41513;BME280;27244;59.940;30.280;2022-09-09T04:20:06;102687.50;;;21.31;41.31
41513;BME280;27244;59.940;30.280;2022-09-09T04:22:37;102683.50;;;21.32;41.33
41513;BME280;27244;59.940;30.280;2022-09-09T04:25:06;102684.72;;;21.34;40.55
41513;BME280;27244;59.940;30.280;2022-09-09T04:27:34;102679.81;;;21.24;40.98
41513;BME280;27244;59.940;30.280;2022-09-09T04:30:01;102688.31;;;21.31;41.24
41513;BME280;27244;59.940;30.280;2022-09-09T04:32:32;102686.31;;;21.32;41.33
41513;BME280;27244;59.940;30.280;2022-09-09T04:34:59;102682.28;;;21.29;41.35
41513;BME280;27244;59.940;30.280;2022-09-09T04:37:26;102681.47;;;21.29;41.26
41513;BME280;27244;59.940;30.280;2022-09-09T04:39:54;102674.22;;;21.28;41.24
41513;BME280;27244;59.940;30.280;2022-09-09T04:42:24;102673.47;;;21.31;41.50
41513;BME280;27244;59.940;30.280;2022-09-09T04:44:51;102683.09;;;21.30;40.62
41513;BME280;27244;59.940;30.280;2022-09-09T04:47:18;102687.09;;;21.29;41.35
41513;BME280;27244;59.940;30.280;2022-09-09T04:49:44;102684.28;;;21.29;41.30
41513;BME280;27244;59.940;30.280;2022-09-09T04:52:12;102681.47;;;21.29;41.17
41513;BME280;27244;59.940;30.280;2022-09-09T04:54:39;102679.03;;;21.27;40.65
41513;BME280;27244;59.940;30.280;2022-09-09T04:57:07;102672.63;;;21.27;40.94
41513;BME280;27244;59.940;30.280;2022-09-09T04:59:35;102683.91;;;21.30;40.57
41513;BME280;27244;59.940;30.280;2022-09-09T05:02:03;102675.03;;;21.28;41.13
41513;BME280;27244;59.940;30.280;2022-09-09T05:04:30;102675.44;;;21.27;40.85
41513;BME280;27244;59.940;30.280;2022-09-09T05:06:57;102684.66;;;21.27;41.23
41513;BME280;27244;59.940;30.280;2022-09-09T05:09:24;102683.88;;;21.27;40.78
41513;BME280;27244;59.940;30.280;2022-09-09T05:11:51;102688.66;;;21.26;41.06
41513;BME280;27244;59.940;30.280;2022-09-09T05:14:25;102680.25;;;21.26;40.65
41513;BME280;27244;59.940;30.280;2022-09-09T05:16:53;102685.47;;;21.28;41.10
41513;BME280;27244;59.940;30.280;2022-09-09T05:19:22;102679.38;;;21.22;40.71
41513;BME280;27244;59.940;30.280;2022-09-09T05:21:51;102688.66;;;21.26;40.79
41513;BME280;27244;59.940;30.280;2022-09-09T05:24:23;102688.66;;;21.26;41.05
41513;BME280;27244;59.940;30.280;2022-09-09T05:26:52;102687.84;;;21.26;40.71
41513;BME280;27244;59.940;30.280;2022-09-09T05:29:19;102699.06;;;21.26;40.53
41513;BME280;27244;59.940;30.280;2022-09-09T05:31:46;102693.03;;;21.24;41.00
41513;BME280;27244;59.940;30.280;2022-09-09T05:34:17;102693.06;;;21.27;41.03
41513;BME280;27244;59.940;30.280;2022-09-09T05:36:45;102682.19;;;21.22;41.34
41513;BME280;27244;59.940;30.280;2022-09-09T05:39:12;102689.03;;;21.25;41.11
41513;BME280;27244;59.940;30.280;2022-09-09T05:41:40;102691.03;;;21.24;40.91
41513;BME280;27244;59.940;30.280;2022-09-09T05:44:07;102686.22;;;21.25;40.97
41513;BME280;27244;59.940;30.280;2022-09-09T05:46:37;102691.03;;;21.24;41.05
41513;BME280;27244;59.940;30.280;2022-09-09T05:49:04;102689.84;;;21.25;41.37
41513;BME280;27244;59.940;30.280;2022-09-09T05:51:34;102689.47;;;21.27;41.34
41513;BME280;27244;59.940;30.280;2022-09-09T05:54:06;102680.56;;;21.21;41.80
41513;BME280;27244;59.940;30.280;2022-09-09T05:56:37;102690.72;;;21.29;41.60
41513;BME280;27244;59.940;30.280;2022-09-09T05:59:06;102688.25;;;21.28;41.53
41513;BME280;27244;59.940;30.280;2022-09-09T06:01:35;102686.28;;;21.28;41.86
41513;BME280;27244;59.940;30.280;2022-09-09T06:04:07;102688.66;;;21.26;41.53
41513;BME280;27244;59.940;30.280;2022-09-09T06:06:38;102681.88;;;21.31;41.62
41513;BME280;27244;59.940;30.280;2022-09-09T06:09:15;102690.25;;;21.27;41.85
41513;BME280;27244;59.940;30.280;2022-09-09T06:11:42;102684.59;;;21.24;41.99
41513;BME280;27244;59.940;30.280;2022-09-09T06:14:10;102689.47;;;21.27;41.98
41513;BME280;27244;59.940;30.280;2022-09-09T06:16:39;102698.31;;;21.29;42.11
41513;BME280;27244;59.940;30.280;2022-09-09T06:19:35;102691.06;;;21.28;42.23
41513;BME280;27244;59.940;30.280;2022-09-09T06:22:04;102695.88;;;21.27;42.42
41513;BME280;27244;59.940;30.280;2022-09-09T06:24:33;102681.38;;;21.22;42.62
41513;BME280;27244;59.940;30.280;2022-09-09T06:27:02;102693.47;;;21.26;42.45
41513;BME280;27244;59.940;30.280;2022-09-09T06:29:32;102693.06;;;21.27;42.53
41513;BME280;27244;59.940;30.280;2022-09-09T06:32:01;102697.94;;;21.30;42.78
41513;BME280;27244;59.940;30.280;2022-09-09T06:34:28;102692.28;;;21.27;43.12
41513;BME280;27244;59.940;30.280;2022-09-09T06:36:57;102699.16;;;21.33;43.39
41513;BME280;27244;59.940;30.280;2022-09-09T06:39:29;102700.81;;;21.34;43.23
41513;BME280;27244;59.940;30.280;2022-09-09T06:41:56;102697.50;;;21.28;43.15
41513;BME280;27244;59.940;30.280;2022-09-09T06:45:02;102693.13;;;21.31;43.37
41513;BME280;27244;59.940;30.280;2022-09-09T06:47:35;102698.72;;;21.31;43.27
41513;BME280;27244;59.940;30.280;2022-09-09T06:50:04;102703.16;;;21.32;43.22
41513;BME280;27244;59.940;30.280;2022-09-09T06:52:34;102697.19;;;21.33;43.29
41513;BME280;27244;59.940;30.280;2022-09-09T06:55:03;102700.00;;;21.33;43.22
41513;BME280;27244;59.940;30.280;2022-09-09T06:57:32;102697.53;;;21.32;43.22
41513;BME280;27244;59.940;30.280;2022-09-09T07:00:00;102699.53;;;21.31;43.59
41513;BME280;27244;59.940;30.280;2022-09-09T07:02:28;102703.16;;;21.32;43.64
41513;BME280;27244;59.940;30.280;2022-09-09T07:04:56;102699.13;;;21.29;43.83
41513;BME280;27244;59.940;30.280;2022-09-09T07:07:24;102706.38;;;21.30;44.19
41513;BME280;27244;59.940;30.280;2022-09-09T07:09:52;102701.53;;;21.31;44.21
41513;BME280;27244;59.940;30.280;2022-09-09T07:12:21;102705.19;;;21.35;44.38
41513;BME280;27244;59.940;30.280;2022-09-09T07:14:54;102712.81;;;21.34;44.29
41513;BME280;27244;59.940;30.280;2022-09-09T07:17:21;102711.22;;;21.33;44.30
41513;BME280;27244;59.940;30.280;2022-09-09T07:19:48;102715.63;;;21.34;43.98
41513;BME280;27244;59.940;30.280;2022-09-09T07:22:16;102720.06;;;21.35;44.11
41513;BME280;27244;59.940;30.280;2022-09-09T07:24:45;102710.44;;;21.36;44.15
41513;BME280;27244;59.940;30.280;2022-09-09T07:27:13;102722.50;;;21.37;44.17
41513;BME280;27244;59.940;30.280;2022-09-09T07:29:42;102714.06;;;21.37;44.04
41513;BME280;27244;59.940;30.280;2022-09-09T07:32:14;102721.72;;;21.40;44.10
41513;BME280;27244;59.940;30.280;2022-09-09T07:34:41;102716.88;;;21.37;43.96
41513;BME280;27244;59.940;30.280;2022-09-09T07:37:09;102722.84;;;21.35;44.06
41513;BME280;27244;59.940;30.280;2022-09-09T07:39:39;102723.25;;;21.34;44.17
41513;BME280;27244;59.940;30.280;2022-09-09T07:42:06;102728.09;;;21.37;44.42
41513;BME280;27244;59.940;30.280;2022-09-09T07:44:35;102730.50;;;21.38;44.50
41513;BME280;27244;59.940;30.280;2022-09-09T07:47:11;102725.28;;;21.37;44.88
41513;BME280;27244;59.940;30.280;2022-09-09T07:49:42;102717.66;;;21.34;44.52
41513;BME280;27244;59.940;30.280;2022-09-09T07:52:09;102727.75;;;21.42;44.63
41513;BME280;27244;59.940;30.280;2022-09-09T07:54:40;102729.00;;;21.44;44.63
41513;BME280;27244;59.940;30.280;2022-09-09T07:57:07;102726.19;;;21.44;44.91
41513;BME280;27244;59.940;30.280;2022-09-09T07:59:36;102731.06;;;21.47;44.88
41513;BME280;27244;59.940;30.280;2022-09-09T08:02:03;102738.28;;;21.48;44.92
41513;BME280;27244;59.940;30.280;2022-09-09T08:04:35;102735.09;;;21.50;45.08
41513;BME280;27244;59.940;30.280;2022-09-09T08:07:03;102732.69;;;21.48;44.91
41513;BME280;27244;59.940;30.280;2022-09-09T08:09:36;102737.91;;;21.50;44.94
41513;BME280;27244;59.940;30.280;2022-09-09T08:12:16;102732.28;;;21.50;45.02
41513;BME280;27244;59.940;30.280;2022-09-09T08:14:44;102738.34;;;21.52;45.15
41513;BME280;27244;59.940;30.280;2022-09-09T08:17:11;102729.91;;;21.52;45.17
41513;BME280;27244;59.940;30.280;2022-09-09T08:19:39;102737.13;;;21.53;45.16
41513;BME280;27244;59.940;30.280;2022-09-09T08:22:11;102740.75;;;21.53;45.22
41513;BME280;27244;59.940;30.280;2022-09-09T08:24:39;102742.75;;;21.53;45.50
41513;BME280;27244;59.940;30.280;2022-09-09T08:27:07;102737.06;;;21.49;45.38
41513;BME280;27244;59.940;30.280;2022-09-09T08:29:36;102738.38;;;21.55;45.62
41513;BME280;27244;59.940;30.280;2022-09-09T08:32:04;102733.13;;;21.54;45.81
41513;BME280;27244;59.940;30.280;2022-09-09T08:34:35;102732.31;;;21.53;45.57
41513;BME280;27244;59.940;30.280;2022-09-09T08:37:09;102733.19;;;21.57;45.55
41513;BME280;27244;59.940;30.280;2022-09-09T08:39:39;102742.41;;;21.58;45.61
41513;BME280;27244;59.940;30.280;2022-09-09T08:42:29;102739.38;;;21.70;45.38
41513;BME280;27244;59.940;30.280;2022-09-09T08:45:14;102738.13;;;21.68;45.42
41513;BME280;27244;59.940;30.280;2022-09-09T08:47:54;102735.66;;;21.63;45.35
41513;BME280;27244;59.940;30.280;2022-09-09T08:50:25;102731.19;;;21.58;45.37
41513;BME280;27244;59.940;30.280;2022-09-09T08:53:02;102734.00;;;21.58;45.61
41513;BME280;27244;59.940;30.280;2022-09-09T08:55:38;102735.22;;;21.60;45.58
41513;BME280;27244;59.940;30.280;2022-09-09T08:58:13;102747.25;;;21.61;45.64
41513;BME280;27244;59.940;30.280;2022-09-09T09:01:09;102735.72;;;21.66;45.27
41513;BME280;27244;59.940;30.280;2022-09-09T09:03:51;102740.47;;;21.62;45.52
41513;BME280;27244;59.940;30.280;2022-09-09T09:06:30;102738.88;;;21.65;45.41
41513;BME280;27244;59.940;30.280;2022-09-09T09:09:08;102740.06;;;21.64;45.56
41513;BME280;27244;59.940;30.280;2022-09-09T09:11:39;102737.22;;;21.60;45.57
41513;BME280;27244;59.940;30.280;2022-09-09T09:14:12;102740.03;;;21.60;45.64
41513;BME280;27244;59.940;30.280;2022-09-09T09:16:50;102740.50;;;21.66;45.59
41513;BME280;27244;59.940;30.280;2022-09-09T09:19:18;102739.63;;;21.58;45.73
41513;BME280;27244;59.940;30.280;2022-09-09T09:21:52;102741.69;;;21.65;45.75
41513;BME280;27244;59.940;30.280;2022-09-09T09:24:27;102734.44;;;21.64;45.82
41513;BME280;27244;59.940;30.280;2022-09-09T09:27:00;102737.66;;;21.62;45.69
41513;BME280;27244;59.940;30.280;2022-09-09T09:29:34;102730.00;;;21.59;45.73
41513;BME280;27244;59.940;30.280;2022-09-09T09:32:02;102727.59;;;21.61;45.64
41513;BME280;27244;59.940;30.280;2022-09-09T09:34:30;102725.94;;;21.56;45.88
41513;BME280;27244;59.940;30.280;2022-09-09T09:36:58;102720.38;;;21.60;45.70
41513;BME280;27244;59.940;30.280;2022-09-09T09:39:32;102723.22;;;21.64;45.92
41513;BME280;27244;59.940;30.280;2022-09-09T09:42:09;102724.88;;;21.68;45.79
41513;BME280;27244;59.940;30.280;2022-09-09T09:44:41;102722.00;;;21.61;45.69
41513;BME280;27244;59.940;30.280;2022-09-09T09:47:15;102721.63;;;21.63;45.81
41513;BME280;27244;59.940;30.280;2022-09-09T09:49:52;102721.22;;;21.64;45.42
41513;BME280;27244;59.940;30.280;2022-09-09T09:52:23;102723.19;;;21.60;44.90
41513;BME280;27244;59.940;30.280;2022-09-09T09:54:52;102719.59;;;21.59;44.62
41513;BME280;27244;59.940;30.280;2022-09-09T09:57:24;102723.56;;;21.58;44.29
41513;BME280;27244;59.940;30.280;2022-09-09T10:00:03;102722.00;;;21.61;43.66
41513;BME280;27244;59.940;30.280;2022-09-09T10:02:41;102711.00;;;21.49;42.55
41513;BME280;27244;59.940;30.280;2022-09-09T10:05:16;102717.81;;;21.48;42.95
41513;BME280;27244;59.940;30.280;2022-09-09T10:08:00;102721.94;;;21.57;43.15
41513;BME280;27244;59.940;30.280;2022-09-09T10:10:37;102711.91;;;21.56;43.27
41513;BME280;27244;59.940;30.280;2022-09-09T10:13:12;102706.63;;;21.51;43.05
41513;BME280;27244;59.940;30.280;2022-09-09T10:15:49;102706.31;;;21.60;43.40
41513;BME280;27244;59.940;30.280;2022-09-09T10:18:45;102700.41;;;21.69;43.26
41513;BME280;27244;59.940;30.280;2022-09-09T10:21:27;102709.19;;;21.64;43.62
41513;BME280;27244;59.940;30.280;2022-09-09T10:24:23;102710.44;;;21.66;43.61
41513;BME280;27244;59.940;30.280;2022-09-09T10:27:00;102703.50;;;21.60;43.87
41513;BME280;27244;59.940;30.280;2022-09-09T10:29:49;102711.66;;;21.69;43.86
41513;BME280;27244;59.940;30.280;2022-09-09T10:32:37;102705.22;;;21.68;44.03
41513;BME280;27244;59.940;30.280;2022-09-09T10:35:11;102700.34;;;21.62;44.13
41513;BME280;27244;59.940;30.280;2022-09-09T10:37:59;102704.00;;;21.66;44.05
41513;BME280;27244;59.940;30.280;2022-09-09T10:40:33;102695.44;;;21.55;44.39
41513;BME280;27244;59.940;30.280;2022-09-09T10:43:12;102711.56;;;21.62;44.30
41513;BME280;27244;59.940;30.280;2022-09-09T10:45:49;102709.13;;;21.60;44.39
41513;BME280;27244;59.940;30.280;2022-09-09T10:48:31;102694.34;;;21.63;44.32
41513;BME280;27244;59.940;30.280;2022-09-09T10:51:23;102694.72;;;21.62;44.33
41513;BME280;27244;59.940;30.280;2022-09-09T10:54:05;102699.53;;;21.61;44.48
41513;BME280;27244;59.940;30.280;2022-09-09T10:56:36;102692.63;;;21.55;44.81
41513;BME280;27244;59.940;30.280;2022-09-09T10:59:11;102698.72;;;21.60;44.74
41513;BME280;27244;59.940;30.280;2022-09-09T11:01:43;102691.78;;;21.51;44.93
41513;BME280;27244;59.940;30.280;2022-09-09T11:04:13;102691.69;;;21.77;44.38
41513;BME280;27244;59.940;30.280;2022-09-09T11:06:46;102703.91;;;21.58;45.10
41513;BME280;27244;59.940;30.280;2022-09-09T11:09:21;102700.28;;;21.58;45.07
41513;BME280;27244;59.940;30.280;2022-09-09T11:11:52;102690.66;;;21.55;45.35
41513;BME280;27244;59.940;30.280;2022-09-09T11:14:26;102694.69;;;21.58;45.25
41513;BME280;27244;59.940;30.280;2022-09-09T11:16:58;102689.03;;;21.54;45.27
41513;BME280;27244;59.940;30.280;2022-09-09T11:19:30;102681.44;;;21.58;45.41
41513;BME280;27244;59.940;30.280;2022-09-09T11:22:03;102689.44;;;21.56;45.46
41513;BME280;27244;59.940;30.280;2022-09-09T11:24:36;102681.81;;;21.57;45.38
41513;BME280;27244;59.940;30.280;2022-09-09T11:27:10;102685.06;;;21.59;45.50
41513;BME280;27244;59.940;30.280;2022-09-09T11:30:21;102680.72;;;21.65;45.15
41513;BME280;27244;59.940;30.280;2022-09-09T11:33:38;102673.97;;;21.70;45.08
41513;BME280;27244;59.940;30.280;2022-09-09T11:36:32;102675.94;;;21.69;45.19
41513;BME280;27244;59.940;30.280;2022-09-09T11:39:22;102673.09;;;21.66;45.35
41513;BME280;27244;59.940;30.280;2022-09-09T11:42:05;102672.28;;;21.65;45.61
41513;BME280;27244;59.940;30.280;2022-09-09T11:44:33;102674.56;;;21.56;45.76
41513;BME280;27244;59.940;30.280;2022-09-09T11:47:01;102679.06;;;21.60;45.71
41513;BME280;27244;59.940;30.280;2022-09-09T11:49:30;102671.44;;;21.61;45.80
41513;BME280;27244;59.940;30.280;2022-09-09T11:52:11;102671.06;;;21.63;45.79
41513;BME280;27244;59.940;30.280;2022-09-09T11:54:44;102676.09;;;21.83;45.19
41513;BME280;27244;59.940;30.280;2022-09-09T11:57:23;102671.16;;;21.70;45.65
41513;BME280;27244;59.940;30.280;2022-09-09T11:59:51;102657.81;;;21.59;45.86
41513;BME280;27244;59.940;30.280;2022-09-09T12:02:23;102672.25;;;21.62;45.90
41513;BME280;27244;59.940;30.280;2022-09-09T12:04:57;102672.28;;;21.65;45.88
41513;BME280;27244;59.940;30.280;2022-09-09T12:07:33;102665.50;;;21.66;45.95
41513;BME280;27244;59.940;30.280;2022-09-09T12:10:05;102662.66;;;21.63;46.06
41513;BME280;27244;59.940;30.280;2022-09-09T12:12:44;102653.81;;;21.64;46.08
41513;BME280;27244;59.940;30.280;2022-09-09T12:15:25;102664.34;;;21.74;45.61
41513;BME280;27244;59.940;30.280;2022-09-09T12:17:57;102645.78;;;21.63;45.93
41513;BME280;27244;59.940;30.280;2022-09-09T12:20:33;102655.03;;;21.63;45.87
41513;BME280;27244;59.940;30.280;2022-09-09T12:23:15;102651.81;;;21.65;45.74
41513;BME280;27244;59.940;30.280;2022-09-09T12:25:54;102651.41;;;21.63;45.69
41513;BME280;27244;59.940;30.280;2022-09-09T12:28:31;102650.59;;;21.62;45.79
41513;BME280;27244;59.940;30.280;2022-09-09T12:31:06;102668.25;;;21.63;45.76
41513;BME280;27244;59.940;30.280;2022-09-09T12:33:39;102648.97;;;21.61;45.82
41513;BME280;27244;59.940;30.280;2022-09-09T12:36:12;102650.59;;;21.62;45.68
41513;BME280;27244;59.940;30.280;2022-09-09T12:38:41;102651.34;;;21.55;45.69
41513;BME280;27244;59.940;30.280;2022-09-09T12:41:19;102649.44;;;21.67;45.56
41513;BME280;27244;59.940;30.280;2022-09-09T12:43:46;102641.31;;;21.58;45.65
41513;BME280;27244;59.940;30.280;2022-09-09T12:46:21;102652.22;;;21.63;45.27
41513;BME280;27244;59.940;30.280;2022-09-09T12:48:53;102642.94;;;21.59;45.63
41513;BME280;27244;59.940;30.280;2022-09-09T12:51:24;102645.75;;;21.59;45.53
41513;BME280;27244;59.940;30.280;2022-09-09T12:53:53;102643.31;;;21.57;45.86
41513;BME280;27244;59.940;30.280;2022-09-09T12:56:22;102641.72;;;21.60;46.08
41513;BME280;27244;59.940;30.280;2022-09-09T12:58:53;102638.56;;;21.62;46.06
41513;BME280;27244;59.940;30.280;2022-09-09T13:01:23;102638.56;;;21.62;46.06
41513;BME280;27244;59.940;30.280;2022-09-09T13:03:52;102635.34;;;21.59;45.97
41513;BME280;27244;59.940;30.280;2022-09-09T13:06:21;102640.53;;;21.61;46.16
41513;BME280;27244;59.940;30.280;2022-09-09T13:08:50;102632.53;;;21.59;46.24
41513;BME280;27244;59.940;30.280;2022-09-09T13:11:20;102631.34;;;21.64;46.18